sensor_id;sensor_type;location;lat;lon;timestamp;pressure;altitude;pressure_sealevel;temperature;humidity
29383;BME280;16365;51.598;7.668;2023-05-25T00:00:57;101833.25;;;16.67;48.83
29383;BME280;16365;51.598;7.668;2023-05-25T00:03:29;101839.22;;;16.66;48.71
29383;BME280;16365;51.598;7.668;2023-05-25T00:05:57;101830.94;;;16.69;48.83
29383;BME280;16365;51.598;7.668;2023-05-25T00:08:24;101832.59;;;16.70;48.97
29383;BME280;16365;51.598;7.668;2023-05-25T00:10:50;101834.25;;;16.72;48.64
29383;BME280;16365;51.598;7.668;2023-05-25T00:13:17;101834.75;;;16.74;48.90
29383;BME280;16365;51.598;7.668;2023-05-25T00:15:43;101831.59;;;16.75;49.01
29383;BME280;16365;51.598;7.668;2023-05-25T00:18:10;101832.06;;;16.77;48.75
29383;BME280;16365;51.598;7.668;2023-05-25T00:20:38;101832.88;;;16.78;48.55
29383;BME280;16365;51.598;7.668;2023-05-25T00:23:05;101830.91;;;16.78;48.74
29383;BME280;16365;51.598;7.668;2023-05-25T00:25:31;101832.53;;;16.79;48.51
29383;BME280;16365;51.598;7.668;2023-05-25T00:27:57;101832.53;;;16.79;48.83
29383;BME280;16365;51.598;7.668;2023-05-25T00:30:24;101822.16;;;16.80;48.33
29383;BME280;16365;51.598;7.668;2023-05-25T00:32:50;101825.78;;;16.80;48.25
29383;BME280;16365;51.598;7.668;2023-05-25T00:35:19;101822.97;;;16.80;48.46
29383;BME280;16365;51.598;7.668;2023-05-25T00:37:46;101830.56;;;16.80;48.11
29383;BME280;16365;51.598;7.668;2023-05-25T00:40:14;101830.91;;;16.78;48.41
29383;BME280;16365;51.598;7.668;2023-05-25T00:42:44;101829.25;;;16.77;48.10
29383;BME280;16365;51.598;7.668;2023-05-25T00:45:13;101830.59;;;16.71;48.50
29383;BME280;16365;51.598;7.668;2023-05-25T00:47:39;101830.13;;;16.69;48.38
29383;BME280;16365;51.598;7.668;2023-05-25T00:50:08;101830.34;;;16.64;48.25
29383;BME280;16365;51.598;7.668;2023-05-25T00:52:34;101831.47;;;16.63;48.28
29383;BME280;16365;51.598;7.668;2023-05-25T00:55:02;101832.50;;;16.58;48.19
29383;BME280;16365;51.598;7.668;2023-05-25T00:57:30;101828.44;;;16.56;48.25
29383;BME280;16365;51.598;7.668;2023-05-25T00:59:59;101824.31;;;16.53;48.35
29383;BME280;16365;51.598;7.668;2023-05-25T01:02:27;101823.03;;;16.51;48.04
29383;BME280;16365;51.598;7.668;2023-05-25T01:04:55;101830.94;;;16.49;48.60
29383;BME280;16365;51.598;7.668;2023-05-25T01:07:25;101827.19;;;16.44;48.35
29383;BME280;16365;51.598;7.668;2023-05-25T01:09:57;101829.03;;;16.40;48.61
29383;BME280;16365;51.598;7.668;2023-05-25T01:12:30;101834.50;;;16.37;48.33
29383;BME280;16365;51.598;7.668;2023-05-25T01:15:00;101829.25;;;16.35;48.25
29383;BME280;16365;51.598;7.668;2023-05-25T01:17:29;101821.50;;;16.32;48.15
29383;BME280;16365;51.598;7.668;2023-05-25T01:19:56;101823.34;;;16.28;48.17
29383;BME280;16365;51.598;7.668;2023-05-25T01:22:31;101823.53;;;16.23;48.57
29383;BME280;16365;51.598;7.668;2023-05-25T01:25:03;101829.00;;;16.19;48.52
29383;BME280;16365;51.598;7.668;2023-05-25T01:27:39;101828.88;;;16.16;48.88
29383;BME280;16365;51.598;7.668;2023-05-25T01:30:12;101820.47;;;16.16;48.92
29383;BME280;16365;51.598;7.668;2023-05-25T01:32:41;101823.28;;;16.16;48.61
29383;BME280;16365;51.598;7.668;2023-05-25T01:35:08;101822.78;;;16.14;48.54
29383;BME280;16365;51.598;7.668;2023-05-25T01:37:36;101829.53;;;16.13;48.25
29383;BME280;16365;51.598;7.668;2023-05-25T01:40:03;101833.84;;;16.10;48.24
29383;BME280;16365;51.598;7.668;2023-05-25T01:42:33;101831.72;;;16.07;48.82
29383;BME280;16365;51.598;7.668;2023-05-25T01:45:00;101836.84;;;16.05;48.22
29383;BME280;16365;51.598;7.668;2023-05-25T01:53:11;101843.97;;;15.94;49.22
29383;BME280;16365;51.598;7.668;2023-05-25T01:55:52;101841.50;;;15.92;48.90
29383;BME280;16365;51.598;7.668;2023-05-25T01:58:21;101840.69;;;15.92;48.89
29383;BME280;16365;51.598;7.668;2023-05-25T02:00:49;101847.44;;;15.91;48.71
29383;BME280;16365;51.598;7.668;2023-05-25T02:03:17;101842.16;;;15.89;48.56
29383;BME280;16365;51.598;7.668;2023-05-25T02:05:44;101846.47;;;15.87;48.78
29383;BME280;16365;51.598;7.668;2023-05-25T02:08:11;101838.41;;;15.85;48.83
29383;BME280;16365;51.598;7.668;2023-05-25T02:10:38;101841.19;;;15.85;48.78
29383;BME280;16365;51.598;7.668;2023-05-25T02:13:04;101836.47;;;15.86;48.71
29383;BME280;16365;51.598;7.668;2023-05-25T02:15:32;101833.16;;;15.84;49.01
29383;BME280;16365;51.598;7.668;2023-05-25T02:17:59;101837.94;;;15.83;48.79
29383;BME280;16365;51.598;7.668;2023-05-25T02:20:26;101839.09;;;15.82;48.95
29383;BME280;16365;51.598;7.668;2023-05-25T02:22:53;101841.38;;;15.80;48.66
29383;BME280;16365;51.598;7.668;2023-05-25T02:25:20;101838.47;;;15.77;49.16
29383;BME280;16365;51.598;7.668;2023-05-25T02:27:46;101837.97;;;15.75;48.75
29383;BME280;16365;51.598;7.668;2023-05-25T02:30:13;101843.91;;;15.73;48.49
29383;BME280;16365;51.598;7.668;2023-05-25T02:32:40;101838.66;;;15.72;48.76
29383;BME280;16365;51.598;7.668;2023-05-25T02:35:07;101838.97;;;15.70;49.14
29383;BME280;16365;51.598;7.668;2023-05-25T02:37:33;101842.94;;;15.69;49.12
29383;BME280;16365;51.598;7.668;2023-05-25T02:40:00;101841.28;;;15.68;48.84
29383;BME280;16365;51.598;7.668;2023-05-25T02:42:27;101848.03;;;15.67;48.78
29383;BME280;16365;51.598;7.668;2023-05-25T02:44:53;101844.75;;;15.65;48.58
29383;BME280;16365;51.598;7.668;2023-05-25T02:47:20;101845.09;;;15.63;48.61
29383;BME280;16365;51.598;7.668;2023-05-25T02:49:47;101845.72;;;15.60;48.86
29383;BME280;16365;51.598;7.668;2023-05-25T02:52:13;101860.03;;;15.59;48.54
29383;BME280;16365;51.598;7.668;2023-05-25T02:54:40;101854.28;;;15.55;48.88
29383;BME280;16365;51.598;7.668;2023-05-25T02:57:07;101850.69;;;15.55;48.88
29383;BME280;16365;51.598;7.668;2023-05-25T02:59:33;101853.81;;;15.53;48.70
29383;BME280;16365;51.598;7.668;2023-05-25T03:02:00;101846.59;;;15.52;48.80
29383;BME280;16365;51.598;7.668;2023-05-25T03:04:26;101846.91;;;15.51;48.85
29383;BME280;16365;51.598;7.668;2023-05-25T03:06:53;101855.63;;;15.49;48.92
29383;BME280;16365;51.598;7.668;2023-05-25T03:09:20;101860.72;;;15.47;48.96
29383;BME280;16365;51.598;7.668;2023-05-25T03:11:46;101856.63;;;15.45;48.98
29383;BME280;16365;51.598;7.668;2023-05-25T03:14:13;101860.25;;;15.45;48.97
29383;BME280;16365;51.598;7.668;2023-05-25T03:16:41;101864.19;;;15.44;48.96
29383;BME280;16365;51.598;7.668;2023-05-25T03:19:07;101859.75;;;15.43;48.97
29383;BME280;16365;51.598;7.668;2023-05-25T03:21:36;101864.53;;;15.42;48.85
29383;BME280;16365;51.598;7.668;2023-05-25T03:24:03;101854.50;;;15.41;48.94
29383;BME280;16365;51.598;7.668;2023-05-25T03:26:30;101861.25;;;15.40;48.76
29383;BME280;16365;51.598;7.668;2023-05-25T03:28:57;101860.75;;;15.38;48.72
29383;BME280;16365;51.598;7.668;2023-05-25T03:31:24;101863.56;;;15.38;48.85
29383;BME280;16365;51.598;7.668;2023-05-25T03:33:51;101868.31;;;15.38;49.04
29383;BME280;16365;51.598;7.668;2023-05-25T03:36:18;101869.47;;;15.37;49.38
29383;BME280;16365;51.598;7.668;2023-05-25T03:38:45;101875.88;;;15.37;49.18
29383;BME280;16365;51.598;7.668;2023-05-25T03:41:11;101880.63;;;15.37;48.94
29383;BME280;16365;51.598;7.668;2023-05-25T03:43:38;101883.44;;;15.37;48.74
29383;BME280;16365;51.598;7.668;2023-05-25T03:46:05;101885.41;;;15.36;48.81
29383;BME280;16365;51.598;7.668;2023-05-25T03:48:34;101891.81;;;15.37;48.92
29383;BME280;16365;51.598;7.668;2023-05-25T03:51:00;101887.38;;;15.36;48.80
29383;BME280;16365;51.598;7.668;2023-05-25T03:53:27;101900.53;;;15.35;49.24
29383;BME280;16365;51.598;7.668;2023-05-25T03:55:53;101899.72;;;15.35;49.29
29383;BME280;16365;51.598;7.668;2023-05-25T03:58:20;101888.38;;;15.31;49.40
29383;BME280;16365;51.598;7.668;2023-05-25T04:00:47;101891.69;;;15.33;49.37
29383;BME280;16365;51.598;7.668;2023-05-25T04:03:17;101892.97;;;15.36;49.27
29383;BME280;16365;51.598;7.668;2023-05-25T04:05:46;101896.28;;;15.38;49.80
29383;BME280;16365;51.598;7.668;2023-05-25T04:08:14;101894.44;;;15.42;49.35
29383;BME280;16365;51.598;7.668;2023-05-25T04:10:44;101895.28;;;15.42;49.87
29383;BME280;16365;51.598;7.668;2023-05-25T04:13:11;101897.72;;;15.44;49.60
29383;BME280;16365;51.598;7.668;2023-05-25T04:15:39;101905.78;;;15.46;49.86
29383;BME280;16365;51.598;7.668;2023-05-25T04:18:06;101912.69;;;15.48;49.89
29383;BME280;16365;51.598;7.668;2023-05-25T04:20:32;101904.78;;;15.50;50.16
29383;BME280;16365;51.598;7.668;2023-05-25T04:22:59;101908.09;;;15.52;50.03
29383;BME280;16365;51.598;7.668;2023-05-25T04:25:26;101909.84;;;15.57;50.02
29383;BME280;16365;51.598;7.668;2023-05-25T04:27:55;101915.59;;;15.60;50.24
29383;BME280;16365;51.598;7.668;2023-05-25T04:30:22;101924.66;;;15.66;50.10
29383;BME280;16365;51.598;7.668;2023-05-25T04:32:48;101920.06;;;15.70;50.23
29383;BME280;16365;51.598;7.668;2023-05-25T04:35:15;101917.06;;;15.75;50.41
29383;BME280;16365;51.598;7.668;2023-05-25T04:37:42;101918.06;;;15.79;50.19
29383;BME280;16365;51.598;7.668;2023-05-25T04:40:09;101916.22;;;15.83;50.48
29383;BME280;16365;51.598;7.668;2023-05-25T04:42:40;101916.88;;;15.89;50.41
29383;BME280;16365;51.598;7.668;2023-05-25T04:45:07;101925.06;;;15.94;50.32
29383;BME280;16365;51.598;7.668;2023-05-25T04:47:35;101925.69;;;16.00;50.55
29383;BME280;16365;51.598;7.668;2023-05-25T04:50:03;101915.84;;;16.02;50.27
29383;BME280;16365;51.598;7.668;2023-05-25T04:52:29;101928.47;;;16.08;50.19
29383;BME280;16365;51.598;7.668;2023-05-25T04:54:57;101923.84;;;16.12;50.36
29383;BME280;16365;51.598;7.668;2023-05-25T04:57:25;101918.06;;;16.17;50.35
29383;BME280;16365;51.598;7.668;2023-05-25T04:59:53;101924.28;;;16.23;50.46
29383;BME280;16365;51.598;7.668;2023-05-25T05:02:20;101930.84;;;16.27;50.51
29383;BME280;16365;51.598;7.668;2023-05-25T05:04:47;101930.66;;;16.32;50.45
29383;BME280;16365;51.598;7.668;2023-05-25T05:07:13;101930.47;;;16.37;50.26
29383;BME280;16365;51.598;7.668;2023-05-25T05:09:43;101938.34;;;16.44;50.35
29383;BME280;16365;51.598;7.668;2023-05-25T05:12:09;101942.91;;;16.49;50.23
29383;BME280;16365;51.598;7.668;2023-05-25T05:14:37;101947.19;;;16.55;50.42
29383;BME280;16365;51.598;7.668;2023-05-25T05:17:04;101948.16;;;16.59;50.30
29383;BME280;16365;51.598;7.668;2023-05-25T05:19:30;101957.16;;;16.64;50.10
29383;BME280;16365;51.598;7.668;2023-05-25T05:21:58;101956.81;;;16.66;49.91
29383;BME280;16365;51.598;7.668;2023-05-25T05:24:26;101967.34;;;16.69;49.79
29383;BME280;16365;51.598;7.668;2023-05-25T05:26:55;101960.59;;;16.70;49.78
29383;BME280;16365;51.598;7.668;2023-05-25T05:29:24;101969.81;;;16.70;49.48
29383;BME280;16365;51.598;7.668;2023-05-25T05:31:54;101977.38;;;16.70;49.89
29383;BME280;16365;51.598;7.668;2023-05-25T05:34:20;101982.34;;;16.73;50.03
29383;BME280;16365;51.598;7.668;2023-05-25T05:36:47;101980.03;;;16.75;50.14
29383;BME280;16365;51.598;7.668;2023-05-25T05:39:25;101984.09;;;16.78;50.07
29383;BME280;16365;51.598;7.668;2023-05-25T05:41:52;101989.53;;;16.83;49.97
29383;BME280;16365;51.598;7.668;2023-05-25T05:44:19;101991.78;;;16.89;50.14
29383;BME280;16365;51.598;7.668;2023-05-25T05:46:46;101996.22;;;16.90;49.95
29383;BME280;16365;51.598;7.668;2023-05-25T05:49:13;101994.75;;;16.93;49.82
29383;BME280;16365;51.598;7.668;2023-05-25T05:51:40;101993.72;;;16.98;50.07
29383;BME280;16365;51.598;7.668;2023-05-25T05:54:07;101996.66;;;17.01;49.78
29383;BME280;16365;51.598;7.668;2023-05-25T05:56:35;102000.75;;;17.04;49.78
29383;BME280;16365;51.598;7.668;2023-05-25T05:59:03;102003.38;;;17.09;49.45
29383;BME280;16365;51.598;7.668;2023-05-25T06:01:31;102006.31;;;17.12;49.66
29383;BME280;16365;51.598;7.668;2023-05-25T06:04:00;102003.16;;;17.14;49.26
29383;BME280;16365;51.598;7.668;2023-05-25T06:06:26;102014.84;;;17.16;49.76
29383;BME280;16365;51.598;7.668;2023-05-25T06:08:53;102010.91;;;17.17;49.49
29383;BME280;16365;51.598;7.668;2023-05-25T06:11:20;102011.81;;;17.21;49.20
29383;BME280;16365;51.598;7.668;2023-05-25T06:13:47;102010.69;;;17.22;48.63
29383;BME280;16365;51.598;7.668;2023-05-25T06:16:13;102014.31;;;17.23;48.54
29383;BME280;16365;51.598;7.668;2023-05-25T06:18:40;102014.63;;;17.21;48.94
29383;BME280;16365;51.598;7.668;2023-05-25T06:21:07;102009.03;;;17.21;49.02
29383;BME280;16365;51.598;7.668;2023-05-25T06:23:34;102004.59;;;17.20;48.76
29383;BME280;16365;51.598;7.668;2023-05-25T06:26:04;102019.09;;;17.22;49.14
29383;BME280;16365;51.598;7.668;2023-05-25T06:28:31;102011.97;;;17.25;48.86
29383;BME280;16365;51.598;7.668;2023-05-25T06:31:00;102018.06;;;17.27;48.78
29383;BME280;16365;51.598;7.668;2023-05-25T06:33:27;102012.72;;;17.34;49.09
29383;BME280;16365;51.598;7.668;2023-05-25T06:35:55;102015.19;;;17.35;48.86
29383;BME280;16365;51.598;7.668;2023-05-25T06:38:23;102015.66;;;17.37;48.80
29383;BME280;16365;51.598;7.668;2023-05-25T06:40:50;102027.84;;;17.41;48.98
29383;BME280;16365;51.598;7.668;2023-05-25T06:43:16;102026.69;;;17.42;48.31
29383;BME280;16365;51.598;7.668;2023-05-25T06:45:44;102035.69;;;17.48;48.78
29383;BME280;16365;51.598;7.668;2023-05-25T06:48:11;102029.75;;;17.50;48.46
29383;BME280;16365;51.598;7.668;2023-05-25T06:50:38;102033.03;;;17.52;48.06
29383;BME280;16365;51.598;7.668;2023-05-25T06:53:05;102033.50;;;17.54;48.13
29383;BME280;16365;51.598;7.668;2023-05-25T06:55:31;102037.94;;;17.55;48.08
29383;BME280;16365;51.598;7.668;2023-05-25T06:57:58;102044.41;;;17.55;48.09
29383;BME280;16365;51.598;7.668;2023-05-25T07:00:25;102044.03;;;17.57;48.23
29383;BME280;16365;51.598;7.668;2023-05-25T07:02:52;102037.72;;;17.60;48.38
29383;BME280;16365;51.598;7.668;2023-05-25T07:05:19;102039.03;;;17.62;48.38
29383;BME280;16365;51.598;7.668;2023-05-25T07:07:47;102040.81;;;17.67;48.00
29383;BME280;16365;51.598;7.668;2023-05-25T07:10:13;102042.94;;;17.70;47.83
29383;BME280;16365;51.598;7.668;2023-05-25T07:12:40;102037.47;;;17.73;47.80
29383;BME280;16365;51.598;7.668;2023-05-25T07:15:07;102035.16;;;17.76;47.31
29383;BME280;16365;51.598;7.668;2023-05-25T07:17:33;102046.03;;;17.77;47.45
29383;BME280;16365;51.598;7.668;2023-05-25T07:20:02;102045.66;;;17.79;48.04
29383;BME280;16365;51.598;7.668;2023-05-25T07:22:29;102042.19;;;17.82;47.61
29383;BME280;16365;51.598;7.668;2023-05-25T07:24:57;102044.78;;;17.87;47.34
29383;BME280;16365;51.598;7.668;2023-05-25T07:27:24;102046.53;;;17.91;47.68
29383;BME280;16365;51.598;7.668;2023-05-25T07:29:51;102039.44;;;17.94;47.44
29383;BME280;16365;51.598;7.668;2023-05-25T07:32:17;102043.16;;;17.98;47.18
29383;BME280;16365;51.598;7.668;2023-05-25T07:34:44;102044.13;;;18.02;47.26
29383;BME280;16365;51.598;7.668;2023-05-25T07:37:10;102053.84;;;18.05;47.47
29383;BME280;16365;51.598;7.668;2023-05-25T07:39:37;102056.75;;;18.08;46.93
29383;BME280;16365;51.598;7.668;2023-05-25T07:42:05;102062.63;;;18.15;47.25
29383;BME280;16365;51.598;7.668;2023-05-25T07:44:32;102061.25;;;18.21;47.06
29383;BME280;16365;51.598;7.668;2023-05-25T07:46:59;102065.38;;;18.24;47.09
29383;BME280;16365;51.598;7.668;2023-05-25T07:49:27;102063.00;;;18.26;47.05
29383;BME280;16365;51.598;7.668;2023-05-25T07:51:53;102067.59;;;18.31;46.95
29383;BME280;16365;51.598;7.668;2023-05-25T07:54:20;102063.28;;;18.33;47.09
29383;BME280;16365;51.598;7.668;2023-05-25T07:56:47;102058.25;;;18.39;47.51
29383;BME280;16365;51.598;7.668;2023-05-25T07:59:13;102076.88;;;18.43;47.29
29383;BME280;16365;51.598;7.668;2023-05-25T08:01:40;102078.63;;;18.48;47.00
29383;BME280;16365;51.598;7.668;2023-05-25T08:04:06;102077.91;;;18.51;46.67
29383;BME280;16365;51.598;7.668;2023-05-25T08:06:33;102079.56;;;18.52;46.44
29383;BME280;16365;51.598;7.668;2023-05-25T08:09:01;102069.16;;;18.53;46.57
29383;BME280;16365;51.598;7.668;2023-05-25T08:11:28;102071.59;;;18.54;46.65
29383;BME280;16365;51.598;7.668;2023-05-25T08:13:54;102065.19;;;18.54;46.80
29383;BME280;16365;51.598;7.668;2023-05-25T08:16:21;102069.63;;;18.55;46.60
29383;BME280;16365;51.598;7.668;2023-05-25T08:18:49;102066.44;;;18.56;46.51
29383;BME280;16365;51.598;7.668;2023-05-25T08:21:17;102072.06;;;18.56;46.29
29383;BME280;16365;51.598;7.668;2023-05-25T08:23:43;102079.00;;;18.59;46.59
29383;BME280;16365;51.598;7.668;2023-05-25T08:26:10;102076.53;;;18.57;46.39
29383;BME280;16365;51.598;7.668;2023-05-25T08:28:57;102082.97;;;18.58;46.42
29383;BME280;16365;51.598;7.668;2023-05-25T08:31:23;102084.16;;;18.57;46.12
29383;BME280;16365;51.598;7.668;2023-05-25T08:33:51;102085.28;;;18.56;46.39
29383;BME280;16365;51.598;7.668;2023-05-25T08:36:18;102088.47;;;18.54;46.04
29383;BME280;16365;51.598;7.668;2023-05-25T08:38:44;102094.06;;;18.54;46.20
29383;BME280;16365;51.598;7.668;2023-05-25T08:41:12;102093.25;;;18.54;46.47
29383;BME280;16365;51.598;7.668;2023-05-25T08:43:40;102101.69;;;18.54;46.36
29383;BME280;16365;51.598;7.668;2023-05-25T08:46:07;102094.91;;;18.55;46.35
29383;BME280;16365;51.598;7.668;2023-05-25T08:48:35;102104.97;;;18.56;46.23
29383;BME280;16365;51.598;7.668;2023-05-25T08:51:09;102102.16;;;18.56;45.95
29383;BME280;16365;51.598;7.668;2023-05-25T08:53:38;102103.31;;;18.55;45.84
29383;BME280;16365;51.598;7.668;2023-05-25T08:58:44;102106.50;;;18.53;45.83
29383;BME280;16365;51.598;7.668;2023-05-25T09:01:14;102100.88;;;18.53;45.26
29383;BME280;16365;51.598;7.668;2023-05-25T09:03:44;102110.13;;;18.54;45.87
29383;BME280;16365;51.598;7.668;2023-05-25T09:06:12;102108.13;;;18.54;45.90
29383;BME280;16365;51.598;7.668;2023-05-25T09:08:39;102099.69;;;18.54;45.63
29383;BME280;16365;51.598;7.668;2023-05-25T09:11:06;102113.75;;;18.54;45.62
29383;BME280;16365;51.598;7.668;2023-05-25T09:13:33;102109.28;;;18.53;45.74
29383;BME280;16365;51.598;7.668;2023-05-25T09:16:00;102120.53;;;18.53;45.61
29383;BME280;16365;51.598;7.668;2023-05-25T09:18:27;102108.00;;;18.50;45.43
29383;BME280;16365;51.598;7.668;2023-05-25T09:20:54;102116.41;;;18.50;45.46
29383;BME280;16365;51.598;7.668;2023-05-25T09:23:22;102114.78;;;18.49;45.33
29383;BME280;16365;51.598;7.668;2023-05-25T09:25:49;102122.41;;;18.49;45.50
29383;BME280;16365;51.598;7.668;2023-05-25T09:28:20;102116.78;;;18.49;45.48
29383;BME280;16365;51.598;7.668;2023-05-25T09:30:49;102120.03;;;18.51;45.59
29383;BME280;16365;51.598;7.668;2023-05-25T09:33:18;102118.53;;;18.54;45.48
29383;BME280;16365;51.598;7.668;2023-05-25T09:35:45;102112.25;;;18.57;45.25
29383;BME280;16365;51.598;7.668;2023-05-25T09:38:15;102109.53;;;18.60;45.00
29383;BME280;16365;51.598;7.668;2023-05-25T09:40:42;102122.06;;;18.63;45.56
29383;BME280;16365;51.598;7.668;2023-05-25T09:43:11;102116.22;;;18.68;45.20
29383;BME280;16365;51.598;7.668;2023-05-25T09:45:50;102115.66;;;18.74;45.10
29383;BME280;16365;51.598;7.668;2023-05-25T09:48:18;102117.78;;;18.78;44.72
29383;BME280;16365;51.598;7.668;2023-05-25T09:50:50;102116.75;;;18.82;44.61
29383;BME280;16365;51.598;7.668;2023-05-25T09:53:16;102121.66;;;18.85;44.61
29383;BME280;16365;51.598;7.668;2023-05-25T09:55:47;102123.31;;;18.86;44.25
29383;BME280;16365;51.598;7.668;2023-05-25T09:58:21;102123.75;;;18.88;44.30
29383;BME280;16365;51.598;7.668;2023-05-25T10:00:52;102125.41;;;18.89;44.35
29383;BME280;16365;51.598;7.668;2023-05-25T10:03:19;102127.50;;;18.92;44.64
29383;BME280;16365;51.598;7.668;2023-05-25T10:05:47;102129.97;;;18.94;44.77
29383;BME280;16365;51.598;7.668;2023-05-25T10:08:16;102131.28;;;18.96;44.57
29383;BME280;16365;51.598;7.668;2023-05-25T10:10:43;102125.75;;;19.00;44.80
29383;BME280;16365;51.598;7.668;2023-05-25T10:13:11;102135.94;;;19.05;44.78
29383;BME280;16365;51.598;7.668;2023-05-25T10:15:39;102131.25;;;19.09;44.53
29383;BME280;16365;51.598;7.668;2023-05-25T10:18:10;102131.75;;;19.11;44.50
29383;BME280;16365;51.598;7.668;2023-05-25T10:20:37;102133.00;;;19.13;44.35
29383;BME280;16365;51.598;7.668;2023-05-25T10:23:08;102135.59;;;19.18;44.03
29383;BME280;16365;51.598;7.668;2023-05-25T10:25:43;102135.25;;;19.20;44.16
29383;BME280;16365;51.598;7.668;2023-05-25T10:28:13;102138.66;;;19.25;44.95
29383;BME280;16365;51.598;7.668;2023-05-25T10:30:44;102133.13;;;19.29;44.21
29383;BME280;16365;51.598;7.668;2023-05-25T10:33:11;102134.06;;;19.33;44.61
29383;BME280;16365;51.598;7.668;2023-05-25T10:35:42;102135.00;;;19.37;43.84
29383;BME280;16365;51.598;7.668;2023-05-25T10:38:29;102136.03;;;19.45;44.39
29383;BME280;16365;51.598;7.668;2023-05-25T10:40:57;102137.56;;;19.55;44.78
29383;BME280;16365;51.598;7.668;2023-05-25T10:43:26;102128.16;;;19.63;44.09
29383;BME280;16365;51.598;7.668;2023-05-25T10:45:53;102129.09;;;19.67;43.55
29383;BME280;16365;51.598;7.668;2023-05-25T10:48:23;102126.03;;;19.72;43.47
29383;BME280;16365;51.598;7.668;2023-05-25T10:51:00;102122.97;;;19.77;44.07
29383;BME280;16365;51.598;7.668;2023-05-25T10:53:27;102128.72;;;19.81;44.20
29383;BME280;16365;51.598;7.668;2023-05-25T10:56:21;102133.28;;;19.85;43.14
29383;BME280;16365;51.598;7.668;2023-05-25T10:58:47;102129.50;;;19.93;43.36
29383;BME280;16365;51.598;7.668;2023-05-25T11:01:14;102125.50;;;19.94;43.10
29383;BME280;16365;51.598;7.668;2023-05-25T11:03:48;102129.94;;;19.95;42.89
29383;BME280;16365;51.598;7.668;2023-05-25T11:06:20;102117.88;;;19.95;42.80
29383;BME280;16365;51.598;7.668;2023-05-25T11:08:54;102117.16;;;19.98;43.30
29383;BME280;16365;51.598;7.668;2023-05-25T11:14:28;102122.53;;;20.03;42.97
29383;BME280;16365;51.598;7.668;2023-05-25T11:17:16;102115.03;;;20.07;43.36
29383;BME280;16365;51.598;7.668;2023-05-25T11:19:50;102127.28;;;20.15;43.37
29383;BME280;16365;51.598;7.668;2023-05-25T11:22:29;102119.41;;;20.20;43.12
29383;BME280;16365;51.598;7.668;2023-05-25T11:24:58;102113.16;;;20.27;43.35
29383;BME280;16365;51.598;7.668;2023-05-25T11:27:29;102107.25;;;20.32;43.62
29383;BME280;16365;51.598;7.668;2023-05-25T11:29:58;102104.28;;;20.41;43.44
29383;BME280;16365;51.598;7.668;2023-05-25T11:32:26;102099.91;;;20.43;43.20
29383;BME280;16365;51.598;7.668;2023-05-25T11:34:55;102098.03;;;20.47;43.08
29383;BME280;16365;51.598;7.668;2023-05-25T11:37:26;102090.84;;;20.50;42.86
29383;BME280;16365;51.598;7.668;2023-05-25T11:39:54;102083.78;;;20.56;43.16
29383;BME280;16365;51.598;7.668;2023-05-25T11:42:22;102085.50;;;20.61;42.75
29383;BME280;16365;51.598;7.668;2023-05-25T11:44:49;102093.75;;;20.69;42.62
29383;BME280;16365;51.598;7.668;2023-05-25T11:47:19;102082.59;;;20.73;42.28
29383;BME280;16365;51.598;7.668;2023-05-25T11:49:48;102093.25;;;20.79;42.43
29383;BME280;16365;51.598;7.668;2023-05-25T11:52:16;102087.22;;;20.81;42.28
29383;BME280;16365;51.598;7.668;2023-05-25T11:54:45;102089.34;;;20.84;42.17
29383;BME280;16365;51.598;7.668;2023-05-25T11:57:24;102090.03;;;20.81;42.20
29383;BME280;16365;51.598;7.668;2023-05-25T11:59:52;102078.50;;;20.86;42.46
29383;BME280;16365;51.598;7.668;2023-05-25T12:02:20;102083.75;;;20.88;42.50
29383;BME280;16365;51.598;7.668;2023-05-25T12:04:59;102092.59;;;20.86;42.01
29383;BME280;16365;51.598;7.668;2023-05-25T12:07:30;102085.03;;;20.90;41.95
29383;BME280;16365;51.598;7.668;2023-05-25T12:10:08;102084.94;;;20.87;41.84
29383;BME280;16365;51.598;7.668;2023-05-25T12:12:46;102087.75;;;20.87;41.91
29383;BME280;16365;51.598;7.668;2023-05-25T12:15:19;102082.13;;;20.87;42.31
29383;BME280;16365;51.598;7.668;2023-05-25T12:17:47;102095.84;;;20.88;42.29
29383;BME280;16365;51.598;7.668;2023-05-25T12:20:15;102084.94;;;20.87;42.48
29383;BME280;16365;51.598;7.668;2023-05-25T12:22:44;102093.41;;;20.87;42.21
29383;BME280;16365;51.598;7.668;2023-05-25T12:25:13;102085.41;;;20.89;42.34
29383;BME280;16365;51.598;7.668;2023-05-25T12:27:41;102089.88;;;20.90;42.04
29383;BME280;16365;51.598;7.668;2023-05-25T12:30:10;102082.22;;;20.90;41.98
29383;BME280;16365;51.598;7.668;2023-05-25T12:32:53;102084.94;;;20.87;41.64
29383;BME280;16365;51.598;7.668;2023-05-25T12:35:20;102073.75;;;20.90;42.00
29383;BME280;16365;51.598;7.668;2023-05-25T12:37:47;102078.22;;;20.91;42.21
29383;BME280;16365;51.598;7.668;2023-05-25T12:40:18;102077.78;;;20.89;41.87
29383;BME280;16365;51.598;7.668;2023-05-25T12:42:54;102074.94;;;20.89;41.90
29383;BME280;16365;51.598;7.668;2023-05-25T12:45:22;102075.84;;;20.93;42.33
29383;BME280;16365;51.598;7.668;2023-05-25T12:47:48;102069.38;;;20.93;42.58
29383;BME280;16365;51.598;7.668;2023-05-25T12:50:15;102063.41;;;20.94;41.85
29383;BME280;16365;51.598;7.668;2023-05-25T12:52:44;102072.28;;;20.96;41.86
29383;BME280;16365;51.598;7.668;2023-05-25T12:58:05;102063.13;;;20.99;41.37
29383;BME280;16365;51.598;7.668;2023-05-25T13:00:39;102067.66;;;21.04;41.92
29383;BME280;16365;51.598;7.668;2023-05-25T13:03:07;102066.56;;;21.09;41.70
29383;BME280;16365;51.598;7.668;2023-05-25T13:05:35;102070.25;;;21.13;41.93
29383;BME280;16365;51.598;7.668;2023-05-25T13:08:03;102075.16;;;21.16;41.95
29383;BME280;16365;51.598;7.668;2023-05-25T13:10:32;102073.63;;;21.18;42.03